Time;durP1;ratioP1;P1;durP2;ratioP2;P2;SDS_P1;SDS_P2;PMS_P1;PMS_P2;Temp;Humidity;BMP_temperature;BMP_pressure;BME280_temperature;BME280_humidity;BME280_pressure;Samples;Min_cycle;Max_cycle;Signal;HPM_P1;HPM_P2
2023/02/19 00:01:00;;;;;;;;;;;9.80;99.90;;;;;;4958772;28;20025;-70
2023/02/19 00:03:26;;;;;;;31.70;4.93;;;9.80;99.90;;;;;;4957355;28;19913;-72
2023/02/19 00:05:52;;;;;;;23.45;5.05;;;9.80;99.90;;;;;;4960443;28;20131;-67
2023/02/19 00:08:18;;;;;;;16.63;4.40;;;9.80;99.90;;;;;;4958045;28;20669;-70
2023/02/19 00:10:44;;;;;;;20.57;4.67;;;9.70;99.90;;;;;;4957983;28;20035;-76
2023/02/19 00:13:10;;;;;;;16.30;5.07;;;9.80;99.90;;;;;;4958589;28;20028;-69
2023/02/19 00:15:36;;;;;;;14.33;4.77;;;9.80;99.90;;;;;;4958619;28;20488;-69
2023/02/19 00:18:01;;;;;;;19.90;5.73;;;9.80;99.90;;;;;;4959381;28;20055;-67
2023/02/19 00:20:27;;;;;;;14.73;5.53;;;9.90;99.90;;;;;;4957233;28;20051;-75
2023/02/19 00:22:53;;;;;;;22.87;6.37;;;9.90;99.90;;;;;;4958929;28;20054;-76
2023/02/19 00:25:19;;;;;;;19.57;6.33;;;9.90;99.90;;;;;;4955587;28;20554;-68
2023/02/19 00:27:44;;;;;;;18.80;6.10;;;9.90;99.90;;;;;;4938802;28;20040;-75
2023/02/19 00:30:11;;;;;;;27.57;6.30;;;9.90;99.90;;;;;;4940310;28;21552;-74
2023/02/19 00:32:36;;;;;;;23.38;7.72;;;9.90;99.90;;;;;;4957644;28;20025;-74
2023/02/19 00:35:03;;;;;;;21.07;6.10;;;9.90;99.90;;;;;;4960233;28;20158;-75
2023/02/19 00:37:28;;;;;;;19.23;6.35;;;10.00;99.90;;;;;;4943144;28;20029;-68
2023/02/19 00:39:54;;;;;;;17.40;6.27;;;9.90;99.90;;;;;;4923541;28;20605;-68
2023/02/19 00:42:20;;;;;;;20.50;6.80;;;10.00;99.90;;;;;;4959291;28;20039;-70
2023/02/19 00:44:46;;;;;;;23.03;6.17;;;10.00;99.90;;;;;;4957822;28;20021;-69
2023/02/19 00:47:11;;;;;;;20.77;6.67;;;10.00;99.90;;;;;;4957118;28;20049;-72
2023/02/19 00:49:37;;;;;;;28.87;7.20;;;9.90;99.90;;;;;;4956160;28;20689;-68
2023/02/19 00:52:03;;;;;;;16.97;6.57;;;9.90;99.90;;;;;;4954346;28;20478;-74
2023/02/19 00:54:30;;;;;;;21.73;5.40;;;9.90;99.90;;;;;;4919134;28;20044;-69
2023/02/19 00:56:55;;;;;;;19.10;6.07;;;9.90;99.90;;;;;;4954055;28;20120;-75
2023/02/19 00:59:21;;;;;;;28.57;7.07;;;9.90;99.90;;;;;;4955065;28;20037;-75
2023/02/19 01:01:48;;;;;;;18.13;6.77;;;9.90;99.90;;;;;;4952655;28;20171;-72
2023/02/19 01:04:15;;;;;;;15.23;5.53;;;9.80;99.90;;;;;;4938750;28;20020;-73
2023/02/19 01:06:41;;;;;;;18.42;6.88;;;9.80;99.90;;;;;;4937778;28;20025;-74
2023/02/19 01:09:07;;;;;;;19.13;6.37;;;9.80;99.90;;;;;;4936294;28;20454;-74
2023/02/19 01:11:33;;;;;;;14.40;5.43;;;9.80;99.90;;;;;;4955434;28;20029;-69
2023/02/19 01:14:00;;;;;;;17.35;6.63;;;9.70;99.90;;;;;;4955663;28;20600;-71
2023/02/19 01:16:26;;;;;;;28.58;6.75;;;9.70;99.90;;;;;;4935965;28;20119;-69
2023/02/19 01:18:53;;;;;;;17.60;5.68;;;9.70;99.90;;;;;;4953127;28;24080;-68
2023/02/19 01:21:21;;;;;;;14.00;5.68;;;9.70;99.90;;;;;;4936391;28;20138;-69
2023/02/19 01:23:49;;;;;;;26.95;6.90;;;9.70;99.90;;;;;;4939242;28;20021;-75
2023/02/19 01:26:18;;;;;;;17.80;6.00;;;9.60;99.90;;;;;;4957616;28;20058;-70
2023/02/19 01:28:45;;;;;;;18.85;5.32;;;9.60;99.90;;;;;;4938579;28;20024;-67
2023/02/19 01:31:17;;;;;;;14.95;5.40;;;9.60;99.90;;;;;;4957009;28;20655;-72
2023/02/19 01:33:54;;;;;;;15.45;4.82;;;9.60;99.90;;;;;;4958265;28;20073;-75
2023/02/19 01:36:20;;;;;;;19.27;5.32;;;9.60;99.90;;;;;;4958431;28;20107;-69
2023/02/19 01:38:46;;;;;;;20.67;5.90;;;9.60;99.90;;;;;;4955530;28;20292;-70
2023/02/19 01:41:15;;;;;;;23.77;4.93;;;9.60;99.90;;;;;;4963118;28;20049;-71
2023/02/19 01:43:58;;;;;;;12.32;5.80;;;9.60;99.90;;;;;;4946699;28;20432;-75
2023/02/19 01:46:29;;;;;;;17.27;5.45;;;9.50;99.90;;;;;;4948031;28;20033;-71
2023/02/19 01:48:59;;;;;;;17.70;6.05;;;9.60;99.90;;;;;;4962787;28;20035;-75
2023/02/19 01:51:27;;;;;;;11.05;5.53;;;9.60;99.90;;;;;;4944357;28;20723;-68
2023/02/19 01:53:57;;;;;;;12.07;5.35;;;9.60;99.90;;;;;;4964073;28;20021;-75
2023/02/19 01:56:25;;;;;;;17.85;5.72;;;9.60;99.90;;;;;;4946047;28;20028;-78
2023/02/19 01:58:51;;;;;;;16.75;5.88;;;9.60;99.90;;;;;;4963007;28;20766;-74
2023/02/19 02:01:17;;;;;;;16.48;6.63;;;9.60;99.90;;;;;;4966313;28;21425;-70
2023/02/19 02:03:46;;;;;;;18.90;5.63;;;9.60;99.90;;;;;;4963850;28;20178;-75
2023/02/19 02:06:24;;;;;;;13.73;6.20;;;9.60;99.90;;;;;;4964848;28;21465;-74
2023/02/19 02:11:46;;;;;;;12.65;5.32;;;9.70;99.90;;;;;;4963562;28;20078;-67
2023/02/19 02:14:12;;;;;;;10.57;5.65;;;9.60;99.90;;;;;;4959738;28;20032;-69
2023/02/19 02:16:40;;;;;;;9.13;4.80;;;9.60;99.90;;;;;;4965588;28;20020;-68
2023/02/19 02:19:37;;;;;;;16.42;5.28;;;9.60;99.90;;;;;;4966354;28;20029;-69
2023/02/19 02:22:11;;;;;;;;;;;9.60;99.90;;;;;;4965007;28;20351;-75
2023/02/19 02:25:02;;;;;;;10.48;4.55;;;9.60;99.90;;;;;;4965115;28;20577;-73
2023/02/19 02:27:51;;;;;;;11.25;4.70;;;9.60;99.90;;;;;;4964184;28;20025;-79
2023/02/19 02:30:32;;;;;;;17.88;4.75;;;9.60;99.90;;;;;;4948658;28;20028;-74
2023/02/19 02:33:29;;;;;;;12.65;3.60;;;9.50;99.90;;;;;;4971525;28;20036;-67
2023/02/19 02:36:06;;;;;;;9.85;3.80;;;9.60;99.90;;;;;;4966281;28;20073;-74
2023/02/19 02:38:36;;;;;;;10.23;2.97;;;9.50;99.90;;;;;;4966256;28;20087;-66
2023/02/19 02:41:03;;;;;;;13.73;3.65;;;9.60;99.90;;;;;;4964339;28;21386;-73
2023/02/19 02:43:28;;;;;;;12.90;2.85;;;9.50;99.90;;;;;;4964540;28;20024;-69
2023/02/19 02:45:54;;;;;;;13.03;3.47;;;9.50;99.90;;;;;;4946759;28;20385;-75
2023/02/19 02:48:28;;;;;;;7.97;2.70;;;9.60;99.90;;;;;;4977550;28;20025;-73
2023/02/19 02:50:59;;;;;;;8.25;3.13;;;9.60;99.90;;;;;;4962564;28;20032;-76
2023/02/19 02:56:11;;;;;;;9.27;2.90;;;9.60;99.90;;;;;;4961608;28;20071;-68
2023/02/19 02:58:37;;;;;;;13.30;3.03;;;9.60;99.90;;;;;;4958210;28;20033;-68
2023/02/19 03:04:00;;;;;;;10.70;3.28;;;9.60;99.90;;;;;;4962156;28;20686;-74
2023/02/19 03:06:30;;;;;;;13.63;3.28;;;9.60;99.90;;;;;;4942704;28;20035;-74
2023/02/19 03:09:09;;;;;;;10.90;2.67;;;9.60;99.90;;;;;;4941877;28;21544;-71
2023/02/19 03:20:11;;;;;;;16.63;4.30;;;9.60;99.90;;;;;;4960060;28;20031;-74
2023/02/19 03:22:39;;;;;;;11.70;3.97;;;9.60;99.90;;;;;;4943372;28;20461;-69
2023/02/19 03:27:59;;;;;;;12.23;4.00;;;9.50;99.90;;;;;;4961740;28;20035;-73
2023/02/19 03:30:39;;;;;;;15.43;4.35;;;9.50;99.90;;;;;;4961044;28;20747;-70
2023/02/19 03:33:31;;;;;;;14.45;3.80;;;9.60;99.90;;;;;;4959156;28;20029;-74
2023/02/19 03:36:02;;;;;;;11.48;4.53;;;9.50;99.90;;;;;;4959440;28;20650;-73
2023/02/19 03:38:43;;;;;;;11.55;3.47;;;9.60;99.90;;;;;;4959423;28;20031;-71
2023/02/19 03:41:35;;;;;;;15.95;3.72;;;9.50;99.90;;;;;;4962673;28;20446;-70
2023/02/19 03:44:25;;;;;;;13.50;3.20;;;9.60;99.90;;;;;;4940951;28;20150;-71
2023/02/19 03:46:55;;;;;;;12.88;3.35;;;9.60;99.90;;;;;;4959531;28;20740;-72
2023/02/19 03:49:25;;;;;;;21.70;4.53;;;9.50;99.90;;;;;;4958469;28;20455;-74
2023/02/19 03:52:00;;;;;;;7.07;3.10;;;9.50;99.90;;;;;;4945011;28;20032;-69
2023/02/19 03:54:42;;;;;;;12.00;3.97;;;9.50;99.90;;;;;;4941562;28;20024;-71
2023/02/19 03:57:20;;;;;;;7.53;3.25;;;9.50;99.90;;;;;;4959969;28;20113;-68
2023/02/19 04:00:02;;;;;;;10.20;4.15;;;9.50;99.90;;;;;;4960375;28;20016;-73
2023/02/19 04:02:43;;;;;;;7.05;2.85;;;9.50;99.90;;;;;;4942272;28;20024;-73
2023/02/19 04:05:20;;;;;;;9.35;3.80;;;9.40;99.90;;;;;;4957177;28;20024;-68
2023/02/19 04:07:50;;;;;;;11.55;3.95;;;9.40;99.90;;;;;;4959768;28;20083;-69
2023/02/19 04:10:17;;;;;;;13.75;4.00;;;9.40;99.90;;;;;;4960359;28;20064;-74
2023/02/19 04:12:49;;;;;;;8.52;3.70;;;9.40;99.90;;;;;;4959880;28;20028;-75
2023/02/19 04:15:20;;;;;;;17.25;3.47;;;9.30;99.90;;;;;;4960611;28;20771;-74
2023/02/19 04:18:09;;;;;;;16.13;3.85;;;9.40;99.90;;;;;;4960277;28;20039;-74
2023/02/19 04:20:41;;;;;;;6.18;3.30;;;9.40;99.90;;;;;;4960127;28;20470;-74
2023/02/19 04:23:07;;;;;;;13.75;3.70;;;9.30;99.90;;;;;;4957626;28;23908;-69
2023/02/19 04:25:37;;;;;;;18.42;4.32;;;9.40;99.90;;;;;;4958688;28;21334;-74
2023/02/19 04:28:03;;;;;;;12.23;3.70;;;9.30;99.90;;;;;;4958531;28;20423;-75
2023/02/19 04:30:28;;;;;;;13.73;3.90;;;9.30;99.90;;;;;;4959481;28;20036;-76
2023/02/19 04:32:54;;;;;;;22.03;4.43;;;9.30;99.90;;;;;;4939201;28;20431;-70
2023/02/19 04:35:20;;;;;;;14.30;3.43;;;9.30;99.90;;;;;;4958417;28;20155;-68
2023/02/19 04:37:45;;;;;;;16.50;3.47;;;9.30;99.90;;;;;;4959419;28;20116;-69
2023/02/19 04:40:11;;;;;;;12.60;3.47;;;9.30;99.90;;;;;;4956567;28;20046;-72
2023/02/19 04:42:37;;;;;;;13.37;3.00;;;9.30;99.90;;;;;;4959603;28;20040;-72
2023/02/19 04:45:03;;;;;;;8.90;3.47;;;9.30;99.90;;;;;;4958713;28;23734;-70
2023/02/19 04:47:31;;;;;;;10.70;3.83;;;9.30;99.90;;;;;;4958087;28;20036;-73
2023/02/19 04:49:57;;;;;;;10.13;3.90;;;9.30;99.90;;;;;;4958948;28;20766;-73
2023/02/19 04:52:23;;;;;;;15.20;4.80;;;9.30;99.90;;;;;;4954813;28;20133;-69
2023/02/19 04:54:48;;;;;;;12.33;3.87;;;9.30;99.90;;;;;;4956185;28;20029;-68
2023/02/19 04:57:14;;;;;;;9.37;3.20;;;9.30;99.90;;;;;;4938858;28;20036;-69
2023/02/19 04:59:40;;;;;;;11.73;3.40;;;9.20;99.90;;;;;;4940619;28;20057;-74
2023/02/19 05:02:06;;;;;;;14.80;3.67;;;9.20;99.90;;;;;;4937274;28;20052;-70
2023/02/19 05:04:31;;;;;;;12.17;3.13;;;9.20;99.90;;;;;;4936581;28;20659;-69
2023/02/19 05:06:57;;;;;;;9.33;3.13;;;9.20;99.90;;;;;;4935295;28;20123;-73
2023/02/19 05:09:23;;;;;;;7.37;3.07;;;9.20;99.90;;;;;;4954887;28;20036;-69
2023/02/19 05:11:48;;;;;;;11.37;3.63;;;9.10;99.90;;;;;;4938680;28;20605;-73
2023/02/19 05:14:15;;;;;;;13.63;4.17;;;9.10;99.90;;;;;;4941284;28;20052;-73
2023/02/19 05:16:41;;;;;;;11.63;4.38;;;9.10;99.90;;;;;;4939221;28;20056;-73
2023/02/19 05:19:10;;;;;;;15.93;5.17;;;9.10;99.90;;;;;;4939010;28;20027;-74
2023/02/19 05:21:39;;;;;;;17.40;4.50;;;9.10;99.90;;;;;;4936981;28;20427;-74
2023/02/19 05:24:05;;;;;;;15.68;5.10;;;9.10;99.90;;;;;;4956620;28;20071;-73
2023/02/19 05:26:31;;;;;;;14.48;4.13;;;9.10;99.90;;;;;;4955093;28;20048;-75
2023/02/19 05:28:57;;;;;;;19.60;5.30;;;9.10;99.90;;;;;;4958469;28;20107;-68
2023/02/19 05:31:23;;;;;;;17.10;5.87;;;9.10;99.90;;;;;;4959005;28;20035;-75
2023/02/19 05:33:51;;;;;;;15.75;5.80;;;9.10;99.90;;;;;;4957098;28;20342;-71
2023/02/19 05:36:19;;;;;;;19.10;6.35;;;9.10;99.90;;;;;;4937608;28;20024;-74
2023/02/19 05:38:44;;;;;;;17.02;6.35;;;9.10;99.90;;;;;;4956671;28;20107;-69
2023/02/19 05:41:19;;;;;;;19.73;7.50;;;9.10;99.90;;;;;;4957394;28;20037;-70
2023/02/19 05:43:47;;;;;;;19.33;8.45;;;9.10;99.90;;;;;;4942454;28;20051;-74
2023/02/19 05:46:15;;;;;;;19.52;7.40;;;9.10;99.90;;;;;;4956089;28;20029;-71
2023/02/19 05:48:41;;;;;;;17.30;7.35;;;9.10;99.90;;;;;;4957549;28;20025;-69
2023/02/19 05:51:13;;;;;;;24.20;8.05;;;9.10;99.90;;;;;;4940267;28;20040;-72
2023/02/19 05:53:40;;;;;;;37.60;7.35;;;9.10;99.90;;;;;;4958557;28;20160;-69
2023/02/19 05:56:26;;;;;;;20.13;9.15;;;9.00;99.90;;;;;;4958919;28;20021;-70
2023/02/19 05:58:53;;;;;;;20.60;8.45;;;9.10;99.90;;;;;;4947301;28;20037;-73
2023/02/19 06:01:22;;;;;;;21.58;8.95;;;9.00;99.90;;;;;;4939085;28;20074;-74
2023/02/19 06:03:47;;;;;;;30.52;9.05;;;9.00;99.90;;;;;;4956726;28;20112;-68
2023/02/19 06:06:15;;;;;;;23.70;9.10;;;9.00;99.90;;;;;;4957736;28;20021;-67
2023/02/19 06:08:40;;;;;;;22.08;9.98;;;9.00;99.90;;;;;;4957655;28;20104;-74
2023/02/19 06:11:06;;;;;;;21.23;8.73;;;8.90;99.90;;;;;;4939423;28;20901;-73
2023/02/19 06:13:32;;;;;;;22.00;9.30;;;9.00;99.90;;;;;;4956813;28;20548;-74
2023/02/19 06:15:58;;;;;;;21.87;8.27;;;8.90;99.90;;;;;;4955690;28;21654;-73
2023/02/19 06:18:23;;;;;;;32.92;10.02;;;8.90;99.90;;;;;;4955121;28;20070;-74
2023/02/19 06:20:49;;;;;;;19.63;9.27;;;9.00;99.90;;;;;;4956498;28;23881;-75
2023/02/19 06:23:15;;;;;;;26.17;10.50;;;8.90;99.90;;;;;;4957288;28;21137;-72
2023/02/19 06:25:41;;;;;;;19.00;8.40;;;8.90;99.90;;;;;;4954710;28;20041;-71
2023/02/19 06:28:08;;;;;;;17.90;8.07;;;8.90;99.90;;;;;;4958653;28;20603;-68
2023/02/19 06:30:34;;;;;;;26.08;9.63;;;8.90;99.90;;;;;;4959307;28;20415;-69
2023/02/19 06:33:00;;;;;;;27.53;9.40;;;8.90;99.90;;;;;;4962701;28;20048;-69
2023/02/19 06:35:26;;;;;;;21.57;8.57;;;8.90;99.90;;;;;;4940685;28;20048;-69
2023/02/19 06:37:51;;;;;;;32.37;7.77;;;9.00;99.90;;;;;;4958916;28;20024;-74
2023/02/19 06:40:17;;;;;;;34.00;8.53;;;8.90;99.90;;;;;;4943779;28;20115;-68
2023/02/19 06:42:43;;;;;;;25.60;9.13;;;9.00;99.90;;;;;;4958957;28;20162;-73
2023/02/19 06:45:09;;;;;;;24.57;8.80;;;8.90;99.90;;;;;;4959729;28;20059;-72
2023/02/19 06:47:35;;;;;;;27.77;7.47;;;9.00;99.90;;;;;;4959544;28;20021;-71
2023/02/19 06:50:00;;;;;;;22.97;9.50;;;8.90;99.90;;;;;;4942761;28;20381;-68
2023/02/19 06:52:27;;;;;;;25.55;9.32;;;9.00;99.90;;;;;;4961101;28;20025;-72
2023/02/19 06:54:53;;;;;;;20.60;9.45;;;9.00;99.90;;;;;;4959664;28;20052;-67
2023/02/19 06:57:18;;;;;;;31.27;9.83;;;8.90;99.90;;;;;;4941112;28;20028;-68
2023/02/19 06:59:45;;;;;;;25.77;8.83;;;8.90;99.90;;;;;;4941627;28;20336;-73
2023/02/19 07:02:11;;;;;;;21.77;8.93;;;8.90;99.90;;;;;;4957434;28;20111;-69
2023/02/19 07:04:37;;;;;;;35.95;8.63;;;8.90;99.90;;;;;;4959427;28;20040;-67
2023/02/19 07:07:03;;;;;;;30.50;8.97;;;8.90;99.90;;;;;;4941356;28;20025;-68
2023/02/19 07:09:28;;;;;;;23.47;9.40;;;8.90;99.90;;;;;;4958270;28;20067;-74
2023/02/19 07:11:54;;;;;;;24.43;9.90;;;8.90;99.90;;;;;;4958484;28;20139;-74
2023/02/19 07:14:20;;;;;;;31.90;10.93;;;8.90;99.90;;;;;;4923617;28;20825;-71
2023/02/19 07:16:46;;;;;;;26.23;10.53;;;8.90;99.90;;;;;;4956293;28;20025;-73
2023/02/19 07:19:16;;;;;;;32.53;10.43;;;8.90;99.90;;;;;;4941486;28;20116;-68
2023/02/19 07:21:42;;;;;;;27.20;11.02;;;8.90;99.90;;;;;;4960211;28;20045;-67
2023/02/19 07:24:09;;;;;;;35.70;12.33;;;8.90;99.90;;;;;;4941167;28;20062;-69
2023/02/19 07:26:35;;;;;;;28.40;11.25;;;8.90;99.90;;;;;;4957333;28;20431;-70
2023/02/19 07:29:02;;;;;;;27.30;10.57;;;8.90;99.90;;;;;;4941114;28;20465;-73
2023/02/19 07:31:28;;;;;;;19.45;8.40;;;8.90;99.90;;;;;;4960634;28;20021;-72
2023/02/19 07:33:54;;;;;;;25.20;9.70;;;8.80;99.90;;;;;;5017820;28;20032;-67
2023/02/19 07:36:22;;;;;;;21.40;10.23;;;8.80;99.90;;;;;;5054538;28;20048;-67
2023/02/19 07:38:56;;;;;;;15.70;7.55;;;8.90;99.90;;;;;;5052657;28;20323;-67
2023/02/19 07:41:23;;;;;;;30.75;8.15;;;8.90;99.90;;;;;;5055685;28;20053;-75
2023/02/19 07:43:48;;;;;;;11.60;7.53;;;8.90;99.90;;;;;;5045705;28;20033;-66
2023/02/19 07:46:14;;;;;;;17.60;8.33;;;8.90;99.90;;;;;;5053108;28;20037;-66
2023/02/19 07:48:42;;;;;;;13.73;8.17;;;8.90;99.90;;;;;;5048683;28;20332;-67
2023/02/19 07:51:11;;;;;;;18.05;7.88;;;8.80;99.90;;;;;;5035308;28;20037;-74
2023/02/19 07:53:37;;;;;;;22.65;8.48;;;8.80;99.90;;;;;;5049128;28;20071;-73
2023/02/19 07:56:05;;;;;;;15.80;8.80;;;8.80;99.90;;;;;;5053911;28;20319;-75
2023/02/19 07:58:31;;;;;;;12.77;6.70;;;8.90;99.90;;;;;;5045843;28;20036;-73
2023/02/19 08:01:15;;;;;;;18.85;8.10;;;8.90;99.90;;;;;;5047251;28;20083;-76
2023/02/19 08:03:42;;;;;;;20.45;8.45;;;8.90;99.90;;;;;;5051897;28;20029;-75
2023/02/19 08:06:10;;;;;;;18.67;8.70;;;8.80;99.90;;;;;;5048287;28;20025;-74
2023/02/19 08:08:36;;;;;;;18.25;8.10;;;8.80;99.90;;;;;;5039404;28;20102;-73
2023/02/19 08:13:50;;;;;;;18.88;9.30;;;8.80;99.90;;;;;;4947937;28;20056;-73
2023/02/19 08:16:18;;;;;;;26.10;9.18;;;8.80;99.90;;;;;;4950298;28;20028;-72
2023/02/19 08:18:45;;;;;;;28.65;11.20;;;8.80;99.90;;;;;;4946703;28;20058;-70
2023/02/19 08:21:11;;;;;;;25.77;10.40;;;8.80;99.90;;;;;;4948739;28;20186;-72
2023/02/19 08:23:37;;;;;;;26.13;11.23;;;8.80;99.90;;;;;;4947264;28;21614;-68
2023/02/19 08:26:03;;;;;;;26.37;10.00;;;8.80;99.90;;;;;;4948014;28;23782;-68
2023/02/19 08:28:30;;;;;;;18.80;10.10;;;8.80;99.90;;;;;;4928125;28;20052;-73
2023/02/19 08:31:05;;;;;;;25.85;10.40;;;8.80;99.90;;;;;;4944095;28;20112;-67
2023/02/19 08:33:31;;;;;;;33.00;10.93;;;8.80;99.90;;;;;;4945151;28;20029;-69
2023/02/19 08:36:03;;;;;;;23.57;11.27;;;8.80;99.90;;;;;;4943665;28;20079;-68
2023/02/19 08:38:29;;;;;;;23.02;10.73;;;8.80;99.90;;;;;;4944522;28;20049;-68
2023/02/19 08:40:55;;;;;;;35.58;10.25;;;8.80;99.90;;;;;;4944663;28;20686;-72
2023/02/19 08:43:20;;;;;;;28.17;9.97;;;8.80;99.90;;;;;;4945511;28;20047;-71
2023/02/19 08:45:46;;;;;;;24.50;8.87;;;8.90;99.90;;;;;;4947149;28;20017;-69
2023/02/19 08:48:13;;;;;;;32.53;10.30;;;8.80;99.90;;;;;;4943003;28;20387;-68
2023/02/19 08:50:38;;;;;;;35.38;11.23;;;9.00;99.90;;;;;;4941795;28;20025;-70
2023/02/19 08:53:05;;;;;;;27.03;11.27;;;9.00;99.90;;;;;;4925905;28;20158;-73
2023/02/19 08:55:31;;;;;;;33.95;11.18;;;9.10;99.90;;;;;;4945369;28;20055;-68
2023/02/19 08:57:57;;;;;;;31.33;11.70;;;9.10;99.90;;;;;;4944646;28;20082;-72
2023/02/19 09:00:24;;;;;;;26.73;10.67;;;9.10;99.90;;;;;;4943661;28;21617;-73
2023/02/19 09:02:49;;;;;;;26.90;10.00;;;9.10;99.90;;;;;;4944792;28;20533;-74
2023/02/19 09:05:16;;;;;;;23.30;10.20;;;9.10;99.90;;;;;;4944590;28;20685;-73
2023/02/19 09:07:42;;;;;;;32.28;10.63;;;9.00;99.90;;;;;;4946057;28;20021;-68
2023/02/19 09:10:11;;;;;;;26.93;8.73;;;9.00;99.90;;;;;;4949855;28;20421;-68
2023/02/19 09:12:37;;;;;;;5.75;2.75;;;8.90;99.90;;;;;;4951548;28;20088;-68
2023/02/19 09:15:04;;;;;;;6.47;3.08;;;8.70;99.90;;;;;;4953953;28;20067;-73
2023/02/19 09:17:29;;;;;;;3.42;2.03;;;8.50;99.90;;;;;;4933563;28;20037;-68
2023/02/19 09:19:55;;;;;;;8.80;2.83;;;8.30;99.90;;;;;;4963770;28;22319;-74
2023/02/19 09:22:21;;;;;;;4.50;2.40;;;8.20;99.90;;;;;;4945305;28;20025;-68
2023/02/19 09:24:46;;;;;;;4.30;1.27;;;8.10;99.90;;;;;;4945178;28;20017;-68
2023/02/19 09:27:16;;;;;;;4.83;1.47;;;8.00;99.90;;;;;;4942959;28;20167;-71
2023/02/19 09:29:42;;;;;;;4.57;2.20;;;8.00;99.90;;;;;;4947404;28;21411;-68
2023/02/19 09:32:08;;;;;;;5.87;1.93;;;7.90;99.90;;;;;;4948468;28;20222;-68
2023/02/19 09:34:33;;;;;;;8.13;2.30;;;7.90;99.90;;;;;;4930902;28;20419;-73
2023/02/19 09:36:59;;;;;;;8.80;2.30;;;7.90;99.90;;;;;;4946840;28;20025;-70
2023/02/19 09:39:25;;;;;;;4.28;2.10;;;7.80;99.90;;;;;;4940335;28;20029;-68
2023/02/19 09:42:00;;;;;;;9.07;3.07;;;7.70;99.90;;;;;;4943982;28;20120;-72
2023/02/19 09:44:41;;;;;;;5.28;2.50;;;7.70;99.90;;;;;;4943898;28;20024;-68
2023/02/19 09:47:17;;;;;;;6.35;2.30;;;7.60;99.90;;;;;;4945634;28;20036;-73
2023/02/19 09:49:49;;;;;;;4.45;1.52;;;7.60;99.90;;;;;;4942237;28;22529;-73
2023/02/19 09:52:17;;;;;;;5.80;1.90;;;7.50;99.90;;;;;;4941596;28;20025;-68
2023/02/19 09:54:45;;;;;;;4.95;2.30;;;7.50;99.90;;;;;;4941085;28;21988;-67
2023/02/19 09:57:17;;;;;;;5.47;2.17;;;7.50;99.90;;;;;;4940162;28;20025;-67
2023/02/19 09:59:46;;;;;;;3.47;1.67;;;7.40;99.90;;;;;;4941129;28;20073;-68
2023/02/19 10:02:21;;;;;;;9.32;2.45;;;7.40;99.90;;;;;;4944226;28;20016;-68
2023/02/19 10:04:49;;;;;;;6.45;2.92;;;7.40;99.90;;;;;;4944735;28;20633;-73
2023/02/19 10:07:49;;;;;;;5.63;2.40;;;7.50;99.90;;;;;;4945489;28;20029;-68
2023/02/19 10:10:14;;;;;;;4.90;2.17;;;7.40;99.90;;;;;;4856231;28;20366;-68
2023/02/19 10:12:46;;;;;;;5.57;2.10;;;7.50;99.90;;;;;;4857325;28;20066;-68
2023/02/19 10:15:21;;;;;;;3.92;1.92;;;7.40;99.90;;;;;;4856674;28;23573;-68
2023/02/19 10:17:47;;;;;;;7.23;2.80;;;7.40;99.90;;;;;;4860923;28;21054;-68
2023/02/19 10:20:21;;;;;;;7.93;2.50;;;7.50;99.90;;;;;;4840436;28;20047;-68
2023/02/19 10:22:47;;;;;;;5.20;2.30;;;7.50;99.90;;;;;;4856615;28;20334;-68
2023/02/19 10:25:15;;;;;;;3.13;1.65;;;7.50;99.90;;;;;;4856087;28;20031;-68
2023/02/19 10:27:42;;;;;;;5.32;2.15;;;7.50;99.90;;;;;;4856713;28;20053;-69
2023/02/19 10:30:17;;;;;;;;;;;7.50;99.90;;;;;;4856668;28;21831;-71
2023/02/19 10:32:59;;;;;;;5.18;2.33;;;7.50;99.90;;;;;;4839123;28;20538;-70
2023/02/19 10:35:25;;;;;;;4.72;2.60;;;7.50;99.90;;;;;;4858557;28;20096;-68
2023/02/19 10:37:51;;;;;;;6.50;1.65;;;7.50;99.90;;;;;;4859509;28;20075;-73
2023/02/19 10:40:23;;;;;;;9.20;3.73;;;7.50;99.90;;;;;;4842324;28;20478;-67
2023/02/19 10:42:53;;;;;;;6.43;2.45;;;7.40;99.90;;;;;;4861318;28;20035;-68
2023/02/19 10:45:49;;;;;;;9.68;3.95;;;7.40;99.90;;;;;;4877758;28;20037;-69
2023/02/19 10:48:35;;;;;;;6.40;3.03;;;7.40;99.90;;;;;;4949652;28;21338;-68
2023/02/19 10:51:06;;;;;;;5.07;2.28;;;7.40;99.90;;;;;;4948385;28;20044;-73
2023/02/19 10:53:41;;;;;;;6.25;2.72;;;7.40;99.90;;;;;;4947074;28;20349;-69
2023/02/19 10:56:27;;;;;;;3.97;2.15;;;7.40;99.90;;;;;;4946719;28;20028;-69
2023/02/19 10:58:54;;;;;;;4.78;2.60;;;7.40;99.90;;;;;;4943155;28;20138;-68
2023/02/19 11:01:28;;;;;;;4.80;1.80;;;7.50;99.90;;;;;;4942004;28;20427;-75
2023/02/19 11:04:17;;;;;;;7.35;2.05;;;7.40;99.90;;;;;;4929768;28;20427;-73
2023/02/19 11:06:43;;;;;;;4.85;1.90;;;7.40;99.90;;;;;;4943182;28;20124;-68
2023/02/19 11:09:23;;;;;;;9.45;2.60;;;7.50;99.90;;;;;;4945165;28;20025;-74
2023/02/19 11:11:52;;;;;;;7.25;2.40;;;7.50;99.90;;;;;;4927983;28;20032;-70
2023/02/19 11:14:22;;;;;;;6.22;2.47;;;7.30;99.90;;;;;;4948402;28;20103;-69
2023/02/19 11:16:55;;;;;;;6.07;1.55;;;7.30;99.90;;;;;;4949720;28;21345;-68
2023/02/19 11:19:29;;;;;;;4.45;1.23;;;7.40;99.90;;;;;;4943075;28;20162;-73
2023/02/19 11:21:55;;;;;;;5.05;1.95;;;7.30;99.90;;;;;;4925921;28;20020;-67
2023/02/19 11:24:36;;;;;;;3.40;1.70;;;7.30;99.90;;;;;;4939466;28;20403;-68
2023/02/19 11:27:14;;;;;;;2.83;1.52;;;7.30;99.90;;;;;;4942905;28;20446;-69
2023/02/19 11:29:39;;;;;;;4.32;1.92;;;7.30;99.90;;;;;;4923861;28;20114;-68
2023/02/19 11:32:25;;;;;;;4.67;1.50;;;7.30;99.90;;;;;;4941203;28;20124;-70
2023/02/19 11:34:51;;;;;;;6.57;2.05;;;7.30;99.90;;;;;;4941940;28;20031;-75
2023/02/19 11:37:19;;;;;;;2.22;1.40;;;7.30;99.90;;;;;;4942260;28;20600;-68
2023/02/19 11:39:50;;;;;;;3.15;1.20;;;7.40;99.90;;;;;;4940964;28;20044;-74
2023/02/19 11:42:21;;;;;;;3.63;1.80;;;7.30;99.90;;;;;;4924548;28;20662;-67
2023/02/19 11:45:07;;;;;;;2.50;1.55;;;7.40;99.90;;;;;;4946870;28;20023;-68
2023/02/19 11:48:11;;;;;;;3.63;1.65;;;7.50;99.90;;;;;;4927302;28;20511;-68
2023/02/19 11:50:58;;;;;;;4.82;1.50;;;7.60;99.90;;;;;;4947670;28;20412;-67
2023/02/19 11:53:47;;;;;;;2.88;1.77;;;7.60;99.90;;;;;;4948200;28;20116;-65
2023/02/19 11:56:40;;;;;;;1.98;1.20;;;7.60;99.90;;;;;;4949012;28;20029;-72
2023/02/19 11:59:17;;;;;;;2.28;1.30;;;7.70;99.90;;;;;;4944741;28;20094;-72
2023/02/19 12:01:52;;;;;;;2.72;1.40;;;7.80;99.90;;;;;;4948520;28;20182;-68
2023/02/19 12:04:37;;;;;;;4.20;1.38;;;7.80;99.90;;;;;;4948434;28;20103;-67
2023/02/19 12:07:21;;;;;;;1.45;0.95;;;7.80;99.90;;;;;;4946645;28;20116;-67
2023/02/19 12:10:11;;;;;;;2.92;1.17;;;7.90;99.90;;;;;;4944033;28;20034;-74
2023/02/19 12:12:46;;;;;;;3.30;1.17;;;7.90;99.90;;;;;;4946423;28;20690;-67
2023/02/19 12:15:24;;;;;;;3.38;1.10;;;7.90;99.90;;;;;;4945590;28;21479;-71
2023/02/19 12:18:16;;;;;;;1.88;1.15;;;7.80;99.90;;;;;;4945982;28;20020;-70
2023/02/19 12:20:50;;;;;;;1.80;1.15;;;7.80;99.90;;;;;;4943949;28;20041;-72
2023/02/19 12:24:01;;;;;;;2.97;0.90;;;7.60;99.90;;;;;;4947007;28;20024;-71
2023/02/19 12:26:31;;;;;;;1.63;0.73;;;7.60;99.90;;;;;;4859060;28;20787;-69
2023/02/19 12:29:19;;;;;;;2.20;0.80;;;7.60;99.90;;;;;;4858519;28;21592;-68
2023/02/19 12:32:12;;;;;;;4.45;1.00;;;7.60;99.90;;;;;;4857826;28;20034;-70
2023/02/19 12:34:59;;;;;;;0.65;0.30;;;7.60;99.90;;;;;;4858753;28;20532;-75
2023/02/19 12:37:40;;;;;;;2.17;0.40;;;7.70;99.90;;;;;;4857524;28;20035;-68
2023/02/19 12:40:42;;;;;;;2.53;0.40;;;7.70;99.90;;;;;;4860727;28;20203;-68
2023/02/19 12:43:13;;;;;;;1.30;0.50;;;7.50;99.90;;;;;;4838048;28;20049;-74
2023/02/19 12:45:46;;;;;;;0.35;0.32;;;7.60;99.90;;;;;;4856700;28;20055;-67
2023/02/19 12:48:24;;;;;;;0.85;0.60;;;7.60;99.90;;;;;;4857046;28;20630;-67
2023/02/19 12:51:11;;;;;;;1.00;0.50;;;7.60;99.90;;;;;;4858109;28;20125;-67
2023/02/19 12:54:00;;;;;;;0.30;0.30;;;7.60;99.90;;;;;;4845726;28;20232;-66
2023/02/19 12:56:54;;;;;;;0.25;0.20;;;7.80;99.90;;;;;;4883982;28;20031;-68
2023/02/19 12:59:28;;;;;;;2.05;0.22;;;7.80;99.90;;;;;;4839897;28;20038;-68
2023/02/19 13:02:12;;;;;;;2.50;0.30;;;7.80;99.90;;;;;;4905342;28;20032;-70
2023/02/19 13:05:01;;;;;;;1.27;0.30;;;7.70;99.90;;;;;;4934782;28;20052;-67
2023/02/19 13:07:48;;;;;;;0.52;0.20;;;7.60;99.90;;;;;;4949481;28;21552;-68
2023/02/19 13:10:29;;;;;;;1.88;0.70;;;7.50;99.90;;;;;;4948658;28;20017;-67
2023/02/19 13:13:00;;;;;;;0.15;0.10;;;7.50;99.90;;;;;;4945659;28;20029;-75
2023/02/19 13:15:43;;;;;;;1.98;0.35;;;7.40;99.90;;;;;;4948071;28;20843;-74
2023/02/19 13:18:20;;;;;;;0.60;0.50;;;7.40;99.90;;;;;;4946414;28;20331;-67
2023/02/19 13:20:47;;;;;;;1.27;0.55;;;7.30;99.90;;;;;;4946578;28;20682;-67
2023/02/19 13:26:12;;;;;;;3.40;1.20;;;7.40;99.90;;;;;;4946652;28;20056;-67
2023/02/19 13:28:59;;;;;;;0.95;0.70;;;7.40;99.90;;;;;;4946416;28;20020;-67
2023/02/19 13:31:37;;;;;;;2.17;1.00;;;7.50;99.90;;;;;;4948709;28;20328;-67
2023/02/19 13:34:41;;;;;;;1.83;0.93;;;7.40;99.90;;;;;;4954849;28;20045;-67
2023/02/19 13:37:08;;;;;;;0.80;0.68;;;7.40;99.90;;;;;;4945485;28;20823;-75